Accueil
METAR-TAF:

METAR-TAF

Aéroports :

Gillette, Wyoming, États-Unis

latitude: 44-20-22N, longitude: 105-32-31W, altitude: 1330 m

Observation

Le bulletin a été fait il y a 1 heure et 16 minutes, à 12:53 UTC
Vent 5 kt de ouest
Température 18°C
Humidité 56%
Pression 1015 hPa
Visibilité: 16.1 km
Ciel clair

METAR: KGCC 011253Z AUTO 26005KT 10SM CLR 18/09 A2998 RMK AO2 SLP102 T01780094

Heure: 08:09 (14:09 UTC)

Prévision

Le bulletin a été fait il y a 2 heures et 49 minutes, à 11:20 UTC
Prévision valable du 01 à 12 UTC au 02 à 12 UTC
Vent 10 kt de ouest
Visibilité: 10 km
Nuages épars à une hauteur de 15000 ft
A partir de 01 à 1800 UTC
Vent 14 kt de est/sud-est
Visibilité: 10 km
Nuages épars à une hauteur de 25000 ft

TAF: KGCC 011120Z 0112/0212 26010KT P6SM SCT150 FM011800 12014KT P6SM SCT250

Observations et prévisions météorologiques de plus de 4000 aéroports (messages METAR et TAF).

Les stations disponibles sont représentées par des disques jaunes et rouges sur la carte.

Passer la souris dessus pour voir le nom de la station.

Cliquer dessus pour voir les observations et prévisions météorologiques.

Pour changer de carte: cliquez sur les boutons verts avec une croix noire pour zoomer, sur le bouton vert avec un tiret pour effectuer un zoom arrière, ou sur les flèches vertes pour les cartes adjacentes.


METAR-TAF: